createdAt,value
2015-09-18T00:03:35.546Z,99996
2015-09-18T00:08:36.369Z,99995
2015-09-18T00:13:38.676Z,99995
2015-09-18T00:18:40.982Z,100002
2015-09-18T00:23:42.663Z,100002
2015-09-18T00:28:45.690Z,100017
2015-09-18T00:33:47.637Z,100015
2015-09-18T00:38:50.854Z,100018
2015-09-18T00:43:52.252Z,100017
2015-09-18T00:48:54.464Z,100017
2015-09-18T00:53:56.736Z,100030
2015-09-18T00:58:58.964Z,100042
2015-09-18T01:04:01.286Z,100037
2015-09-18T01:09:03.795Z,100042
2015-09-18T01:14:06.619Z,100047
2015-09-18T01:19:08.050Z,100049
2015-09-18T01:22:23.634Z,100052
2015-09-18T01:27:25.894Z,100047
2015-09-18T01:32:28.184Z,100041
2015-09-18T01:37:31.367Z,100056
2015-09-18T01:42:33.860Z,100047
2015-09-18T01:47:36.370Z,100056
2015-09-18T01:52:38.646Z,100056
2015-09-18T01:57:40.999Z,100062
2015-09-18T02:02:43.243Z,100074
2015-09-18T02:07:45.081Z,100077
2015-09-18T02:12:47.279Z,100077
2015-09-18T02:17:50.539Z,100065
2015-09-18T02:22:52.361Z,100074
2015-09-18T02:27:54.886Z,100065
2015-09-18T02:32:57.818Z,100081
2015-09-18T02:38:00.078Z,100080
2015-09-18T02:43:02.259Z,100069
2015-09-18T02:48:04.501Z,100080
2015-09-18T02:53:06.846Z,100087
2015-09-18T02:58:09.043Z,100093
2015-09-18T03:03:12.396Z,100096
2015-09-18T03:08:13.859Z,100094
2015-09-18T03:13:16.808Z,100090
2015-09-18T03:18:19.115Z,100093
2015-09-18T03:23:21.311Z,100100
2015-09-18T03:28:24.149Z,100104
2015-09-18T03:33:25.753Z,100096
2015-09-18T03:38:28.076Z,100099
2015-09-18T03:43:30.695Z,100096
2015-09-18T03:48:34.282Z,100094
2015-09-18T03:53:36.088Z,100100
2015-09-18T03:58:37.957Z,100105
2015-09-18T04:03:40.203Z,100116
2015-09-18T04:08:42.586Z,100107
2015-09-18T04:13:44.782Z,100113
2015-09-18T04:18:46.980Z,100112
2015-09-18T04:23:49.349Z,100118
2015-09-18T04:28:51.093Z,100110
2015-09-18T04:33:54.118Z,100112
2015-09-18T04:38:55.894Z,100113
2015-09-18T04:43:58.310Z,100107
2015-09-18T04:49:00.586Z,100122
2015-09-18T04:54:04.563Z,100123
2015-09-18T04:59:06.776Z,100141
2015-09-18T05:04:09.130Z,100145
2015-09-18T05:09:11.000Z,100141
2015-09-18T05:14:14.728Z,100149
2015-09-18T05:19:16.313Z,100139
2015-09-18T05:24:18.620Z,100144
2015-09-18T05:29:20.490Z,100147
2015-09-18T05:34:22.750Z,100154
2015-09-18T05:39:25.182Z,100162
2015-09-18T05:44:27.347Z,100166
2015-09-18T05:49:29.841Z,100170
2015-09-18T05:54:34.507Z,100183
2015-09-18T05:59:34.424Z,100169
2015-09-18T06:04:37.651Z,100198
2015-09-18T06:09:39.958Z,100191
2015-09-18T06:14:42.328Z,100198
2015-09-18T06:19:44.494Z,100199
2015-09-18T06:24:47.832Z,100193
2015-09-18T06:29:50.701Z,100204
2015-09-18T06:34:54.744Z,100202
2015-09-18T06:39:55.994Z,100196
2015-09-18T06:44:59.301Z,100223
2015-09-18T06:50:00.630Z,100214
2015-09-18T06:55:02.801Z,100231
2015-09-18T07:00:04.659Z,100244
2015-09-18T07:05:08.764Z,100243
2015-09-18T07:10:12.523Z,100246
2015-09-18T07:15:13.189Z,100253
2015-09-18T07:20:17.262Z,100247
2015-09-18T07:25:19.646Z,100253
2015-09-18T07:30:20.375Z,100270
2015-09-18T07:35:22.932Z,100263
2015-09-18T07:40:25.880Z,100281
2015-09-18T07:45:28.248Z,100281
2015-09-18T07:50:30.430Z,100291
2015-09-18T07:55:32.862Z,100301
2015-09-18T08:00:34.886Z,100310
2015-09-18T08:05:36.740Z,100312
2015-09-18T08:10:40.422Z,100320
2015-09-18T08:15:42.041Z,100326
2015-09-18T08:20:44.018Z,100335
2015-09-18T08:25:46.450Z,100336
2015-09-18T08:30:48.553Z,100343
2015-09-18T08:35:52.500Z,100346
2015-09-18T08:40:54.666Z,100353
2015-09-18T08:45:57.489Z,100346
2015-09-18T08:51:01.186Z,100357
2015-09-18T08:56:03.618Z,100356
2015-09-18T09:01:05.738Z,100351
2015-09-18T09:06:08.529Z,100344
2015-09-18T09:11:10.336Z,100359
2015-09-18T09:16:13.001Z,100362
2015-09-18T09:21:14.840Z,100356
2015-09-18T09:26:17.318Z,100362
2015-09-18T09:31:20.609Z,100359
2015-09-18T09:36:22.604Z,100359
2015-09-18T09:41:24.908Z,100356
2015-09-18T09:46:27.964Z,100363
2015-09-18T09:51:30.288Z,100362
2015-09-18T09:56:32.548Z,100375
2015-09-18T10:01:34.823Z,100377
2015-09-18T10:06:37.693Z,100382
2015-09-18T10:11:40.609Z,100382
2015-09-18T10:16:42.822Z,100377
2015-09-18T10:21:45.128Z,100381
2015-09-18T10:26:47.076Z,100384
2015-09-18T10:31:49.570Z,100387
2015-09-18T10:36:51.705Z,100388
2015-09-18T10:41:53.949Z,100391
2015-09-18T10:46:56.224Z,100394
2015-09-18T10:51:58.467Z,100393
2015-09-18T10:57:02.713Z,100399
2015-09-18T11:02:03.001Z,100412
2015-09-18T11:07:06.277Z,100412
2015-09-18T11:12:09.380Z,100418
2015-09-18T11:17:11.750Z,100403
2015-09-18T11:22:14.009Z,100403
2015-09-18T11:27:16.363Z,100411
2015-09-18T11:32:18.404Z,100401
2015-09-18T11:37:22.414Z,100390
2015-09-18T11:42:23.064Z,100398
2015-09-18T11:47:25.418Z,100393
2015-09-18T11:52:27.630Z,100396
2015-09-18T11:57:30.046Z,100401
2015-09-18T12:02:32.181Z,100404
2015-09-18T12:07:34.456Z,100396
2015-09-18T12:12:36.733Z,100393
2015-09-18T12:17:38.523Z,100402
2015-09-18T12:22:41.549Z,100392
2015-09-18T12:27:43.887Z,100385
2015-09-18T12:32:45.785Z,100396
2015-09-18T12:37:47.686Z,100379
2015-09-18T12:42:50.321Z,100392
2015-09-18T12:47:52.612Z,100394
2015-09-18T12:52:54.902Z,100411
2015-09-18T12:57:57.225Z,100422
2015-09-18T13:02:59.422Z,100419
2015-09-18T13:08:01.714Z,100408
2015-09-18T13:13:03.895Z,100436
2015-09-18T13:18:06.264Z,100427
2015-09-18T13:23:08.118Z,100422
2015-09-18T13:28:11.518Z,100427
2015-09-18T13:33:13.091Z,100435
2015-09-18T13:38:15.569Z,100438
2015-09-18T13:43:17.702Z,100451
2015-09-18T13:48:20.024Z,100444
2015-09-18T13:53:22.237Z,100446
2015-09-18T13:58:24.074Z,100470
2015-09-18T14:03:27.178Z,100479
2015-09-18T14:08:29.063Z,100498
2015-09-18T14:13:31.339Z,100500
2015-09-18T14:18:33.724Z,100517
2015-09-18T14:23:35.951Z,100516
2015-09-18T14:28:38.305Z,100504
2015-09-18T14:33:40.565Z,100490
2015-09-18T14:38:42.856Z,100482
2015-09-18T14:43:44.631Z,100466
2015-09-18T14:48:47.297Z,100457
2015-09-18T14:53:50.768Z,100439
2015-09-18T14:58:51.888Z,100451
2015-09-18T15:03:54.146Z,100447
2015-09-18T15:08:56.484Z,100444
2015-09-18T15:13:58.712Z,100441
2015-09-18T15:19:00.987Z,100444
2015-09-18T15:24:03.591Z,100450
2015-09-18T15:29:07.227Z,100456
2015-09-18T15:34:10.064Z,100456
2015-09-18T15:39:12.230Z,100435
2015-09-18T15:44:14.696Z,100459
2015-09-18T15:49:16.872Z,100428
2015-09-18T15:54:19.179Z,100432
2015-09-18T15:59:21.435Z,100430
2015-09-18T16:04:23.697Z,100422
2015-09-18T16:09:26.616Z,100422
2015-09-18T16:14:28.547Z,100416
2015-09-18T16:19:30.588Z,100419
2015-09-18T16:24:32.956Z,100421
2015-09-18T16:29:35.215Z,100422
2015-09-18T16:34:37.382Z,100440
2015-09-18T16:39:39.672Z,100445
2015-09-18T16:44:41.931Z,100437
2015-09-18T16:49:44.286Z,100443
2015-09-18T16:54:46.546Z,100452
2015-09-18T16:59:48.617Z,100455
2015-09-18T17:04:53.393Z,100447
2015-09-18T17:09:54.292Z,100446
2015-09-18T17:14:57.162Z,100455
2015-09-18T17:19:58.938Z,100449
2015-09-18T17:25:01.119Z,100446
2015-09-18T17:30:03.567Z,100452
2015-09-18T17:35:06.811Z,100456
2015-09-18T17:40:09.212Z,100448
2015-09-18T17:45:10.878Z,100456
2015-09-18T17:50:13.606Z,100459
2015-09-18T17:55:15.848Z,100469
2015-09-18T18:00:17.733Z,100481
2015-09-18T18:05:21.431Z,100478
2015-09-18T18:10:24.691Z,100476
2015-09-18T18:15:26.965Z,100484
2015-09-18T18:20:29.194Z,100486
2015-09-18T18:25:31.186Z,100505
2015-09-18T18:30:34.061Z,100499
2015-09-18T18:35:35.946Z,100495
2015-09-18T18:40:38.295Z,100511
2015-09-18T18:45:40.555Z,100519
2015-09-18T18:50:42.408Z,100528
2015-09-18T18:55:44.964Z,100542
2015-09-18T19:00:47.459Z,100535
2015-09-18T19:05:49.484Z,100542
2015-09-18T19:10:51.290Z,100544
2015-09-18T19:15:54.441Z,100544
2015-09-18T19:20:56.169Z,100541
2015-09-18T19:25:58.537Z,100552
2015-09-18T19:31:00.875Z,100549
2015-09-18T19:36:03.103Z,100547
2015-09-18T19:41:05.425Z,100548
2015-09-18T19:46:07.748Z,100560
2015-09-18T19:51:09.930Z,100561
2015-09-18T19:56:11.768Z,100558
2015-09-18T20:01:14.465Z,100557
2015-09-18T20:06:16.803Z,100560
2015-09-18T20:11:18.531Z,100558
2015-09-18T20:16:20.791Z,100560
2015-09-18T20:21:24.364Z,100563
2015-09-18T20:26:26.795Z,100552
2015-09-18T20:31:29.023Z,100567
2015-09-18T20:36:31.221Z,100561
2015-09-18T20:41:33.167Z,100558
2015-09-18T20:46:37.379Z,100572
2015-09-18T20:51:38.405Z,100590
2015-09-18T20:56:40.461Z,100599
2015-09-18T21:01:42.925Z,100589
2015-09-18T21:06:44.981Z,100583
2015-09-18T21:11:47.303Z,100577
2015-09-18T21:16:49.578Z,100577
2015-09-18T21:21:51.838Z,100583
2015-09-18T21:26:54.192Z,100594
2015-09-18T21:31:56.484Z,100601
2015-09-18T21:37:00.213Z,100598
2015-09-18T21:42:01.706Z,100601
2015-09-18T21:47:04.092Z,100603
2015-09-18T21:52:06.460Z,100602
2015-09-18T21:57:08.705Z,100600
2015-09-18T22:02:11.043Z,100606
2015-09-18T22:07:13.239Z,100613
2015-09-18T22:12:15.810Z,100602
2015-09-18T22:17:17.335Z,100612
2015-09-18T22:22:21.205Z,100603
2015-09-18T22:27:22.387Z,100607
2015-09-18T22:32:24.615Z,100616
2015-09-18T22:37:26.937Z,100611
2015-09-18T22:42:29.276Z,100624
2015-09-18T22:47:32.473Z,100624
2015-09-18T22:52:34.747Z,100616
2015-09-18T22:57:36.508Z,100606
2015-09-18T23:02:38.830Z,100621
2015-09-18T23:07:41.871Z,100622
2015-09-18T23:12:44.333Z,100619
2015-09-18T23:17:46.140Z,100619
2015-09-18T23:22:48.353Z,100614
2015-09-18T23:27:50.739Z,100623
2015-09-18T23:32:52.902Z,100616
2015-09-18T23:37:56.037Z,100620
2015-09-18T23:42:58.297Z,100600
2015-09-18T23:48:02.057Z,100605
2015-09-18T23:53:03.144Z,100608
2015-09-18T23:58:05.045Z,100607
